Baldwin, New York
Current Conditions -  °F | °C
As of 5:51 AM on Tuesday 21 Oct 2014 (Local Time) from KJFK Reporting Station
Overcast Overcast  
Wind Chill: 55°   Ceiling: 14000
Heat Index: 55°   Visibility: 10mi
Dew Point: 48°   Wind: 3mph
Humidity: 77%   Direction: 220°SW
Pressure: 29.91"   Gusts: NA
Location:  40.66°N, 73.61°W
Report Text: KJFK 210951Z 22003KT 10SM FEW050 OVC140 13/09 A2991 RMK AO2 SLP129 T01280089
Loading
Personal Weather Stations






























Interactive Weather Map
Tropical Storm Tracking
New forecast layout! Learn more

10-Day Weather Forecast

Advertisements
Track Severe Weather on mobile